createdAt,value
2017-08-29T16:07:24.283Z,100743.72
2017-08-29T16:09:52.187Z,100740.56
2017-08-29T16:12:20.107Z,100735.31
2017-08-29T16:14:48.027Z,100739.72
2017-08-29T16:17:15.950Z,100739.42
2017-08-29T16:19:43.871Z,100732.67
2017-08-29T16:22:11.827Z,100734.25
2017-08-29T16:24:39.730Z,100729.72
2017-08-29T16:27:07.645Z,100727.94
2017-08-29T16:29:35.551Z,100734.48
2017-08-29T16:32:03.472Z,100732.58
2017-08-29T16:34:31.400Z,100739.38
2017-08-29T16:36:59.311Z,100731.58
2017-08-29T16:39:27.219Z,100726.06
2017-08-29T16:41:55.339Z,100729.71
2017-08-29T16:44:23.259Z,100735.94
2017-08-29T16:46:51.173Z,100728.96
2017-08-29T16:49:19.108Z,100729.84
2017-08-29T16:51:47.017Z,100736.67
2017-08-29T16:54:14.946Z,100737.48
2017-08-29T16:56:42.853Z,100736.91
2017-08-29T16:59:10.766Z,100738.95
2017-08-29T17:01:38.667Z,100730.77
2017-08-29T17:04:06.596Z,100735.02
2017-08-29T17:06:34.619Z,100727.19
2017-08-29T17:09:02.692Z,100721.29
2017-08-29T17:11:30.609Z,100724.37
2017-08-29T17:13:58.515Z,100722.09
2017-08-29T17:16:26.452Z,100722.36
2017-08-29T17:18:54.362Z,100731.10
2017-08-29T17:21:22.284Z,100723.38
2017-08-29T17:23:50.195Z,100719.91
2017-08-29T17:26:18.282Z,100724.52
2017-08-29T17:28:46.187Z,100728.06
2017-08-29T17:31:14.121Z,100737.19
2017-08-29T17:33:42.034Z,100738.29
2017-08-29T17:36:09.950Z,100733.62
2017-08-29T17:38:37.865Z,100738.73
2017-08-29T17:41:05.777Z,100743.58
2017-08-29T17:43:33.698Z,100740.12
2017-08-29T17:46:01.616Z,100742.12
2017-08-29T17:48:29.527Z,100745.87
2017-08-29T17:50:57.436Z,100746.06
2017-08-29T17:53:25.346Z,100744.19
2017-08-29T17:55:53.261Z,100743.89
2017-08-29T17:58:21.291Z,100749.68
2017-08-29T18:00:49.195Z,100755.28
2017-08-29T18:03:17.123Z,100762.08
2017-08-29T18:05:45.052Z,100763.92
2017-08-29T18:08:12.976Z,100759.50
2017-08-29T18:10:40.898Z,100757.92
2017-08-29T18:13:08.820Z,100759.70
2017-08-29T18:15:36.864Z,100759.94
2017-08-29T18:18:04.877Z,100760.38
2017-08-29T18:20:32.783Z,100763.48
2017-08-29T18:23:00.717Z,100760.47
2017-08-29T18:25:28.621Z,100760.86
2017-08-29T18:27:56.538Z,100758.67
2017-08-29T18:30:24.460Z,100752.56
2017-08-29T18:32:52.373Z,100753.36
2017-08-29T18:35:20.287Z,100754.70
2017-08-29T18:37:48.203Z,100757.30
2017-08-29T18:40:16.150Z,100747.81
2017-08-29T18:42:44.217Z,100743.06
2017-08-29T18:45:12.125Z,100743.34
2017-08-29T18:47:40.038Z,100743.47
2017-08-29T18:50:07.955Z,100750.02
2017-08-29T18:52:35.870Z,100744.25
2017-08-29T18:55:03.793Z,100743.81
2017-08-29T18:57:31.709Z,100739.91
2017-08-29T18:59:59.634Z,100744.37
2017-08-29T19:02:27.552Z,100744.89
2017-08-29T19:04:55.488Z,100748.45
2017-08-29T19:07:23.646Z,100750.22
2017-08-29T19:09:51.770Z,100750.55
2017-08-29T19:12:19.682Z,100743.95
2017-08-29T19:14:47.632Z,100749.91
2017-08-29T19:17:15.557Z,100750.26
2017-08-29T19:19:43.459Z,100753.89
2017-08-29T19:22:11.380Z,100748.15
2017-08-29T19:24:39.300Z,100754.78
2017-08-29T19:27:07.216Z,100745.11
2017-08-29T19:29:35.126Z,100747.05
2017-08-29T19:32:03.064Z,100749.25
2017-08-29T19:34:31.022Z,100747.01
2017-08-29T19:36:59.035Z,100751.55
2017-08-29T19:39:27.029Z,100744.05
2017-08-29T19:41:54.942Z,100745.73
2017-08-29T19:44:22.879Z,100747.03
2017-08-29T19:46:50.912Z,100748.22
2017-08-29T19:49:18.843Z,100744.83
2017-08-29T19:51:46.773Z,100747.38
2017-08-29T19:54:14.709Z,100749.28
2017-08-29T19:56:42.683Z,100747.60
2017-08-29T19:59:10.612Z,100745.37
2017-08-29T20:01:38.508Z,100753.89
2017-08-29T20:04:06.433Z,100749.70
2017-08-29T20:06:34.353Z,100749.78
2017-08-29T20:09:02.293Z,100749.03
2017-08-29T20:11:30.355Z,100748.34
2017-08-29T20:13:58.277Z,100743.91
2017-08-29T20:16:26.296Z,100744.72
2017-08-29T20:18:54.234Z,100743.36
2017-08-29T20:21:22.170Z,100736.73
2017-08-29T20:23:50.073Z,100729.06
2017-08-29T20:26:18.462Z,100735.95
2017-08-29T20:28:46.365Z,100737.43
2017-08-29T20:31:14.275Z,100732.31
2017-08-29T20:33:42.565Z,100736.84
2017-08-29T20:36:10.483Z,100734.94
2017-08-29T20:38:38.514Z,100730.12
2017-08-29T20:41:07.185Z,100722.94
2017-08-29T20:43:35.101Z,100724.22
2017-08-29T20:46:03.005Z,100719.77
2017-08-29T20:48:31.193Z,100718.35
2017-08-29T20:50:59.114Z,100715.05
2017-08-29T20:53:27.020Z,100710.73
2017-08-29T20:55:55.214Z,100708.81
2017-08-29T20:58:23.124Z,100709.51
2017-08-29T21:00:51.022Z,100705.74
2017-08-29T21:03:19.424Z,100707.55
2017-08-29T21:05:47.340Z,100718.24
2017-08-29T21:08:15.257Z,100718.48
2017-08-29T21:10:43.477Z,100715.59
2017-08-29T21:13:11.383Z,100721.02
2017-08-29T21:15:39.302Z,100717.64
2017-08-29T21:18:07.652Z,100722.70
2017-08-29T21:20:35.578Z,100725.11
2017-08-29T21:23:03.502Z,100723.54
2017-08-29T21:25:31.420Z,100722.36
2017-08-29T21:27:59.386Z,100719.30
2017-08-29T21:30:27.302Z,100720.19
2017-08-29T21:32:55.208Z,100719.54
2017-08-29T21:35:23.129Z,100716.52
2017-08-29T21:37:51.053Z,100723.12
2017-08-29T21:40:19.186Z,100715.60
2017-08-29T21:42:47.100Z,100721.72
2017-08-29T21:45:15.037Z,100726.73
2017-08-29T21:47:42.930Z,100728.11
2017-08-29T21:50:10.840Z,100719.69
2017-08-29T21:52:38.769Z,100719.66
2017-08-29T21:55:06.680Z,100730.15
2017-08-29T21:57:34.626Z,100730.52
2017-08-29T22:00:02.545Z,100726.08
2017-08-29T22:02:30.470Z,100721.52
2017-08-29T22:04:58.393Z,100722.70
2017-08-29T22:07:26.320Z,100726.69
2017-08-29T22:09:54.243Z,100729.00
2017-08-29T22:12:22.242Z,100725.86
2017-08-29T22:14:50.153Z,100726.14
2017-08-29T22:17:18.428Z,100726.58
2017-08-29T22:19:46.332Z,100723.53
2017-08-29T22:22:14.248Z,100719.67
2017-08-29T22:24:42.160Z,100715.00
2017-08-29T22:27:10.073Z,100711.17
2017-08-29T22:29:38.006Z,100717.09
2017-08-29T22:32:05.923Z,100706.17
2017-08-29T22:34:33.839Z,100705.36
2017-08-29T22:37:01.761Z,100707.65
2017-08-29T22:39:29.678Z,100705.55
2017-08-29T22:41:57.593Z,100707.00
2017-08-29T22:44:25.519Z,100704.87
2017-08-29T22:46:53.433Z,100703.52
2017-08-29T22:49:21.630Z,100698.86
2017-08-29T22:51:49.540Z,100697.58
2017-08-29T22:54:17.466Z,100702.50
2017-08-29T22:56:45.387Z,100701.66
2017-08-29T22:59:13.293Z,100700.35
2017-08-29T23:01:41.214Z,100706.58
2017-08-29T23:04:09.114Z,100708.35
2017-08-29T23:06:37.031Z,100704.03
2017-08-29T23:09:04.954Z,100707.57
2017-08-29T23:11:32.879Z,100710.88
2017-08-29T23:14:00.787Z,100713.88
2017-08-29T23:16:28.824Z,100716.23
2017-08-29T23:18:56.744Z,100709.38
2017-08-29T23:21:24.659Z,100709.02
2017-08-29T23:23:52.584Z,100704.57
2017-08-29T23:26:20.495Z,100700.66
2017-08-29T23:28:48.423Z,100699.83
2017-08-29T23:31:16.337Z,100699.55
2017-08-29T23:33:44.264Z,100703.41
2017-08-29T23:36:12.172Z,100698.32
2017-08-29T23:38:40.092Z,100700.60
2017-08-29T23:41:08.036Z,100694.20
2017-08-29T23:43:35.991Z,100694.23
2017-08-29T23:46:03.900Z,100690.72
2017-08-29T23:48:31.815Z,100688.61
2017-08-29T23:50:59.740Z,100686.82
2017-08-29T23:53:27.666Z,100688.63
2017-08-29T23:55:55.597Z,100687.22
2017-08-29T23:58:23.503Z,100682.38
